Time;durP1;ratioP1;P1;durP2;ratioP2;P2;SDS_P1;SDS_P2;PMS_P1;PMS_P2;Temp;Humidity;BMP_temperature;BMP_pressure;BME280_temperature;BME280_humidity;BME280_pressure;Samples;Min_cycle;Max_cycle;Signal;HPM_P1;HPM_P2
2022/08/07 00:01:20;;;;;;;8.18;7.03;;;12.20;99.90;;;;;;5069746;28;20122;-68
2022/08/07 00:03:46;;;;;;;9.73;7.82;;;12.20;99.90;;;;;;5087415;28;20043;-69
2022/08/07 00:06:13;;;;;;;11.48;7.75;;;12.10;99.90;;;;;;5086163;28;20089;-69
2022/08/07 00:08:38;;;;;;;10.75;8.30;;;12.10;99.90;;;;;;5065268;28;20039;-69
2022/08/07 00:11:05;;;;;;;11.38;8.23;;;12.00;99.90;;;;;;5086133;28;20058;-69
2022/08/07 00:13:31;;;;;;;10.70;8.40;;;12.00;99.90;;;;;;5087126;28;20035;-69
2022/08/07 00:15:58;;;;;;;13.55;8.55;;;12.00;99.90;;;;;;5086042;28;20189;-69
2022/08/07 00:18:26;;;;;;;10.90;8.50;;;11.90;99.90;;;;;;5087847;28;20561;-69
2022/08/07 00:21:05;;;;;;;13.75;8.48;;;11.90;99.90;;;;;;5069559;28;20107;-69
2022/08/07 00:23:32;;;;;;;10.57;8.75;;;11.90;99.90;;;;;;5070735;28;20292;-69
2022/08/07 00:25:59;;;;;;;15.60;8.70;;;11.90;99.90;;;;;;5086626;28;20136;-69
2022/08/07 00:28:26;;;;;;;9.45;8.43;;;11.80;99.90;;;;;;5086599;28;20098;-69
2022/08/07 00:30:52;;;;;;;10.18;8.25;;;11.80;99.90;;;;;;5069922;28;20051;-69
2022/08/07 00:33:18;;;;;;;13.82;9.52;;;11.70;99.90;;;;;;5087207;28;20268;-69
2022/08/07 00:35:44;;;;;;;12.52;9.13;;;11.70;99.90;;;;;;5069231;28;20051;-68
2022/08/07 00:38:09;;;;;;;12.68;9.13;;;11.70;99.90;;;;;;5066455;28;20127;-69
2022/08/07 00:40:36;;;;;;;11.20;8.95;;;11.70;99.90;;;;;;5086792;28;20748;-69
2022/08/07 00:43:02;;;;;;;14.63;10.10;;;11.70;99.90;;;;;;5085964;28;20031;-69
2022/08/07 00:45:28;;;;;;;12.35;9.90;;;11.70;99.90;;;;;;5086624;28;20583;-68
2022/08/07 00:47:54;;;;;;;12.35;9.60;;;11.70;99.90;;;;;;5067274;28;20116;-69
2022/08/07 00:50:19;;;;;;;11.65;9.73;;;11.70;99.90;;;;;;5068985;28;20058;-69
2022/08/07 00:52:45;;;;;;;12.90;10.00;;;11.70;99.90;;;;;;5068656;28;20035;-69
2022/08/07 00:55:11;;;;;;;13.70;9.93;;;11.70;99.90;;;;;;5088422;28;20137;-70
2022/08/07 00:57:36;;;;;;;15.38;9.90;;;11.70;99.90;;;;;;5094082;28;20062;-69
2022/08/07 01:00:07;;;;;;;13.80;10.60;;;11.60;99.90;;;;;;5113861;27;20046;-69
2022/08/07 01:02:33;;;;;;;12.50;9.65;;;11.60;99.90;;;;;;5118706;27;20403;-69
2022/08/07 01:04:59;;;;;;;13.15;10.13;;;11.60;99.90;;;;;;5099704;27;20034;-69
2022/08/07 01:07:27;;;;;;;15.75;9.32;;;11.50;99.90;;;;;;5117920;27;20330;-69
2022/08/07 01:09:52;;;;;;;14.20;9.77;;;11.50;99.90;;;;;;5104195;27;20284;-69
2022/08/07 01:12:18;;;;;;;13.93;9.43;;;11.50;99.90;;;;;;5101300;27;20050;-69
2022/08/07 01:14:45;;;;;;;16.15;10.63;;;11.50;99.90;;;;;;5117080;27;20073;-69
2022/08/07 01:17:11;;;;;;;13.27;9.75;;;11.50;99.90;;;;;;5101065;27;20271;-69
2022/08/07 01:19:38;;;;;;;13.25;9.35;;;11.50;99.90;;;;;;5134149;27;20035;-69
2022/08/07 01:22:04;;;;;;;11.63;9.18;;;11.50;99.90;;;;;;5094072;27;20091;-70
2022/08/07 01:24:31;;;;;;;16.02;10.48;;;11.50;99.90;;;;;;5086344;27;20041;-69
2022/08/07 01:26:59;;;;;;;14.50;10.25;;;11.40;99.90;;;;;;5116846;27;20047;-69
2022/08/07 01:29:26;;;;;;;15.77;10.68;;;11.40;99.90;;;;;;5102597;27;20709;-69
2022/08/07 01:31:53;;;;;;;13.95;10.45;;;11.40;99.90;;;;;;5118055;27;20030;-69
2022/08/07 01:34:19;;;;;;;14.48;11.25;;;11.40;99.90;;;;;;5117891;27;20045;-69
2022/08/07 01:36:47;;;;;;;16.23;11.90;;;11.40;99.90;;;;;;5115727;27;20043;-69
2022/08/07 01:39:13;;;;;;;15.98;10.88;;;11.40;99.90;;;;;;5118000;27;20232;-70
2022/08/07 01:41:39;;;;;;;17.70;12.25;;;11.40;99.90;;;;;;5083136;27;20039;-70
2022/08/07 01:44:05;;;;;;;15.93;12.02;;;11.30;99.90;;;;;;5116765;27;20183;-70
2022/08/07 01:46:31;;;;;;;19.98;13.20;;;11.30;99.90;;;;;;5101374;27;20031;-70
2022/08/07 01:48:57;;;;;;;16.00;13.15;;;11.30;99.90;;;;;;5098005;27;20046;-70
2022/08/07 01:51:24;;;;;;;16.35;11.93;;;11.40;99.90;;;;;;5117715;27;20065;-70
2022/08/07 01:53:56;;;;;;;14.27;12.00;;;11.40;99.90;;;;;;5100107;27;20391;-70
2022/08/07 01:56:25;;;;;;;19.20;11.73;;;11.40;99.90;;;;;;5115973;27;20117;-69
2022/08/07 01:59:08;;;;;;;17.52;12.57;;;11.40;99.90;;;;;;5100335;27;20250;-70
2022/08/07 02:01:45;;;;;;;16.98;11.90;;;11.40;99.90;;;;;;5118748;27;20035;-70
2022/08/07 02:04:16;;;;;;;16.88;11.57;;;11.30;99.90;;;;;;5117918;27;20096;-70
2022/08/07 02:06:43;;;;;;;15.25;12.40;;;11.30;99.90;;;;;;5116999;27;20048;-70
2022/08/07 02:09:14;;;;;;;14.20;11.73;;;11.30;99.90;;;;;;5135191;27;20455;-70
2022/08/07 02:11:44;;;;;;;15.05;11.95;;;11.30;99.90;;;;;;5113307;27;20416;-68
2022/08/07 02:14:11;;;;;;;16.17;10.77;;;11.30;99.90;;;;;;5121103;27;20074;-69
2022/08/07 02:16:38;;;;;;;14.75;11.18;;;11.20;99.90;;;;;;5104048;27;20500;-69
2022/08/07 02:19:07;;;;;;;14.02;11.02;;;11.30;99.90;;;;;;5103790;27;20392;-69
2022/08/07 02:21:36;;;;;;;15.77;11.30;;;11.30;99.90;;;;;;5120504;27;20321;-69
2022/08/07 02:24:03;;;;;;;16.05;11.00;;;11.20;99.90;;;;;;5119506;27;20608;-69
2022/08/07 02:26:29;;;;;;;13.90;11.15;;;11.20;99.90;;;;;;5120436;27;20260;-68
2022/08/07 02:28:57;;;;;;;15.32;11.27;;;11.20;99.90;;;;;;5120828;27;20488;-69
2022/08/07 02:31:24;;;;;;;14.55;10.48;;;11.20;99.90;;;;;;5117509;27;20538;-69
2022/08/07 02:33:51;;;;;;;13.43;10.02;;;11.20;99.90;;;;;;5102229;27;20471;-68
2022/08/07 02:36:18;;;;;;;15.00;10.10;;;11.20;99.90;;;;;;5111859;27;20101;-68
2022/08/07 02:38:46;;;;;;;14.48;10.18;;;11.20;99.90;;;;;;5096582;27;20106;-68
2022/08/07 02:41:12;;;;;;;13.82;9.68;;;11.20;99.90;;;;;;5114342;27;20496;-68
2022/08/07 02:43:41;;;;;;;14.02;10.48;;;11.10;99.90;;;;;;5088299;27;20038;-68
2022/08/07 02:46:10;;;;;;;13.25;10.20;;;11.10;99.90;;;;;;5117509;27;20464;-68
2022/08/07 02:48:37;;;;;;;14.10;9.23;;;11.10;99.90;;;;;;5111898;27;20145;-68
2022/08/07 02:51:08;;;;;;;9.95;8.90;;;11.10;99.90;;;;;;5112998;27;20556;-68
2022/08/07 02:53:37;;;;;;;13.02;9.68;;;11.10;99.90;;;;;;5099915;27;20411;-68
2022/08/07 02:56:05;;;;;;;11.98;8.77;;;11.10;99.90;;;;;;5112568;27;20400;-68
2022/08/07 02:58:32;;;;;;;14.07;9.13;;;11.10;99.90;;;;;;5078530;27;20130;-68
2022/08/07 03:00:59;;;;;;;12.40;9.20;;;11.20;99.90;;;;;;5066351;27;20673;-68
2022/08/07 03:03:29;;;;;;;14.02;9.85;;;11.30;99.90;;;;;;5104532;27;20077;-67
2022/08/07 03:05:56;;;;;;;14.00;10.07;;;11.30;99.90;;;;;;5097128;27;20357;-67
2022/08/07 03:08:23;;;;;;;14.25;10.63;;;11.30;99.90;;;;;;5101194;27;20053;-67
2022/08/07 03:10:49;;;;;;;14.85;10.45;;;11.30;99.90;;;;;;5120951;27;20182;-68
2022/08/07 03:13:15;;;;;;;12.85;10.10;;;11.30;99.90;;;;;;5120444;27;20038;-67
2022/08/07 03:15:42;;;;;;;14.38;11.30;;;11.30;99.90;;;;;;5093932;27;20061;-68
2022/08/07 03:18:08;;;;;;;15.48;11.48;;;11.30;99.90;;;;;;5121342;27;20566;-67
2022/08/07 03:20:35;;;;;;;14.27;10.95;;;11.30;99.90;;;;;;5104799;27;20428;-67
2022/08/07 03:23:01;;;;;;;14.70;11.90;;;11.20;99.90;;;;;;5103286;27;20395;-68
2022/08/07 03:25:31;;;;;;;14.90;10.82;;;11.10;99.90;;;;;;5121870;27;20371;-67
2022/08/07 03:27:59;;;;;;;16.45;11.82;;;11.10;99.90;;;;;;5095313;27;20050;-67
2022/08/07 03:30:25;;;;;;;14.05;11.70;;;11.00;99.90;;;;;;5105707;27;20133;-67
2022/08/07 03:32:53;;;;;;;14.82;10.75;;;11.00;99.90;;;;;;5087957;27;20042;-68
2022/08/07 03:35:23;;;;;;;17.13;12.05;;;10.90;99.90;;;;;;5122974;27;20047;-67
2022/08/07 03:37:55;;;;;;;16.50;12.13;;;11.00;99.90;;;;;;5122108;27;20047;-68
2022/08/07 03:40:22;;;;;;;16.70;12.48;;;10.90;99.90;;;;;;5102238;27;20039;-67
2022/08/07 03:42:50;;;;;;;18.55;12.73;;;10.90;99.90;;;;;;5120742;27;20039;-67
2022/08/07 03:45:15;;;;;;;18.05;13.18;;;10.80;99.90;;;;;;5101180;27;20046;-67
2022/08/07 03:47:41;;;;;;;16.98;11.82;;;10.80;99.90;;;;;;5103048;27;20388;-68
2022/08/07 03:50:08;;;;;;;15.82;12.98;;;10.70;99.90;;;;;;5103514;27;20078;-67
2022/08/07 03:52:35;;;;;;;18.75;12.95;;;10.70;99.90;;;;;;5103832;27;20039;-67
2022/08/07 03:55:02;;;;;;;16.30;12.57;;;10.70;99.90;;;;;;5120681;27;20619;-68
2022/08/07 03:57:30;;;;;;;16.67;12.73;;;10.70;99.90;;;;;;5104407;27;20039;-68
2022/08/07 03:59:56;;;;;;;17.25;12.48;;;10.70;99.90;;;;;;5120503;27;20059;-67
2022/08/07 04:02:23;;;;;;;18.58;12.45;;;10.70;99.90;;;;;;5103704;27;20043;-68
2022/08/07 04:04:49;;;;;;;16.27;12.77;;;10.70;99.90;;;;;;5104109;27;20509;-67
2022/08/07 04:07:19;;;;;;;20.27;13.05;;;10.70;99.90;;;;;;5092756;27;20500;-67
2022/08/07 04:09:48;;;;;;;19.90;14.38;;;10.70;99.90;;;;;;5119816;27;20129;-67
2022/08/07 04:12:15;;;;;;;19.45;14.93;;;10.60;99.90;;;;;;5118538;27;20034;-68
2022/08/07 04:14:41;;;;;;;19.55;15.18;;;10.70;99.90;;;;;;5120030;27;20452;-67
2022/08/07 04:17:08;;;;;;;16.77;13.43;;;10.60;99.90;;;;;;5115131;27;20041;-68
2022/08/07 04:19:34;;;;;;;17.08;13.40;;;10.60;99.90;;;;;;5110825;27;20058;-68
2022/08/07 04:22:01;;;;;;;17.75;12.45;;;10.70;99.90;;;;;;5094321;27;20518;-68
2022/08/07 04:24:27;;;;;;;18.45;13.65;;;10.70;99.90;;;;;;5109983;27;20373;-69
2022/08/07 04:26:53;;;;;;;16.67;12.27;;;10.70;99.90;;;;;;5111346;27;20622;-68
2022/08/07 04:29:19;;;;;;;18.33;13.20;;;10.70;99.90;;;;;;5109884;27;20047;-69
2022/08/07 04:31:45;;;;;;;20.40;13.63;;;10.80;99.90;;;;;;5112373;27;20043;-69
2022/08/07 04:34:11;;;;;;;19.42;14.60;;;10.70;99.90;;;;;;5109877;27;20694;-69
2022/08/07 04:36:38;;;;;;;20.63;13.93;;;10.80;99.90;;;;;;5093754;27;20046;-69
2022/08/07 04:39:04;;;;;;;17.52;12.40;;;10.80;99.90;;;;;;5110250;27;20053;-69
2022/08/07 04:41:30;;;;;;;18.50;13.35;;;10.80;99.90;;;;;;5111960;27;20034;-69
2022/08/07 04:43:56;;;;;;;16.67;12.50;;;10.80;99.90;;;;;;5092864;27;20116;-69
2022/08/07 04:46:28;;;;;;;16.75;12.30;;;10.90;99.90;;;;;;5093859;27;20074;-69
2022/08/07 04:49:09;;;;;;;15.80;11.15;;;11.00;99.90;;;;;;5108788;27;20535;-69
2022/08/07 04:51:55;;;;;;;16.25;11.77;;;11.10;99.90;;;;;;5082297;27;20043;-69
2022/08/07 04:54:34;;;;;;;12.90;11.00;;;11.20;99.90;;;;;;5110348;27;20030;-69
2022/08/07 04:57:19;;;;;;;14.52;10.70;;;11.30;99.90;;;;;;5093349;27;20038;-69
2022/08/07 05:00:07;;;;;;;15.30;10.82;;;11.40;99.90;;;;;;5109250;27;20572;-69
2022/08/07 05:03:21;;;;;;;12.35;10.48;;;11.50;99.90;;;;;;5110276;27;20035;-69
2022/08/07 05:05:59;;;;;;;12.45;9.10;;;11.50;99.90;;;;;;5128332;27;20488;-69
2022/08/07 05:08:56;;;;;;;10.98;8.27;;;11.70;99.90;;;;;;5109138;27;20041;-69
2022/08/07 05:11:34;;;;;;;15.77;9.90;;;11.70;99.90;;;;;;5103311;27;20385;-69
2022/08/07 05:14:12;;;;;;;12.13;8.77;;;11.80;99.90;;;;;;5110007;27;20043;-69
2022/08/07 05:16:46;;;;;;;14.10;9.55;;;11.90;99.90;;;;;;5104620;27;20160;-69
2022/08/07 05:19:16;;;;;;;12.63;8.88;;;12.00;99.90;;;;;;5108750;27;20034;-69
2022/08/07 05:21:51;;;;;;;12.32;8.98;;;12.00;99.90;;;;;;5110345;27;20480;-67
2022/08/07 05:24:18;;;;;;;12.93;9.23;;;12.10;99.90;;;;;;5109351;27;20130;-68
2022/08/07 05:26:47;;;;;;;12.80;8.93;;;12.20;99.90;;;;;;5109559;27;20047;-68
2022/08/07 05:29:15;;;;;;;11.10;8.65;;;12.30;99.90;;;;;;5108469;27;20043;-68
2022/08/07 05:31:43;;;;;;;11.70;8.52;;;12.40;99.90;;;;;;5111134;27;20093;-68
2022/08/07 05:34:12;;;;;;;10.68;8.27;;;12.60;99.90;;;;;;5091575;27;20106;-68
2022/08/07 05:36:41;;;;;;;9.93;8.00;;;12.90;99.90;;;;;;5109439;27;20045;-68
2022/08/07 05:39:08;;;;;;;9.10;6.97;;;13.30;99.90;;;;;;5081871;27;20194;-68
2022/08/07 05:41:33;;;;;;;8.35;6.60;;;13.80;99.90;;;;;;5110559;27;20039;-68
2022/08/07 05:44:00;;;;;;;9.15;6.05;;;14.40;99.90;;;;;;5096577;27;20551;-68
2022/08/07 05:46:26;;;;;;;9.95;6.22;;;14.80;99.90;;;;;;5114022;27;20175;-68
2022/08/07 05:48:52;;;;;;;6.75;6.05;;;15.10;99.90;;;;;;5106295;27;20429;-68
2022/08/07 05:51:21;;;;;;;6.63;5.72;;;15.50;99.90;;;;;;5103779;27;20026;-68
2022/08/07 05:53:47;;;;;;;6.25;4.70;;;15.90;99.90;;;;;;5115691;27;20045;-68
2022/08/07 05:56:14;;;;;;;5.18;4.25;;;16.10;99.90;;;;;;5115366;27;20386;-68
2022/08/07 05:58:41;;;;;;;5.20;4.55;;;16.30;99.90;;;;;;5112544;27;20601;-68
2022/08/07 06:01:09;;;;;;;6.97;4.38;;;16.50;99.90;;;;;;5095907;27;20107;-68
2022/08/07 06:03:37;;;;;;;5.68;4.30;;;16.80;99.90;;;;;;5114579;27;20045;-68
2022/08/07 06:06:05;;;;;;;4.70;3.45;;;16.70;99.90;;;;;;5095440;27;20339;-68
2022/08/07 06:08:31;;;;;;;4.53;3.65;;;16.90;99.90;;;;;;5117462;27;20038;-68
2022/08/07 06:10:58;;;;;;;4.13;3.72;;;17.10;99.90;;;;;;5094558;27;20539;-68
2022/08/07 06:13:24;;;;;;;4.93;3.90;;;17.30;99.90;;;;;;5095648;27;20050;-68
2022/08/07 06:15:50;;;;;;;6.22;3.88;;;17.40;99.90;;;;;;5080769;27;20304;-68
2022/08/07 06:18:17;;;;;;;4.47;3.75;;;17.30;99.90;;;;;;5112435;27;20046;-68
2022/08/07 06:20:45;;;;;;;5.22;4.32;;;17.30;99.90;;;;;;5096627;27;20203;-68
2022/08/07 06:23:11;;;;;;;5.28;3.92;;;17.50;99.90;;;;;;5096242;27;20513;-69
2022/08/07 06:25:39;;;;;;;4.05;3.65;;;17.60;99.90;;;;;;5080297;27;20043;-68
2022/08/07 06:28:07;;;;;;;5.35;3.90;;;17.80;99.90;;;;;;5111752;27;20885;-69
2022/08/07 06:30:34;;;;;;;5.80;4.20;;;17.90;99.90;;;;;;5113056;27;20046;-69
2022/08/07 06:33:00;;;;;;;5.53;3.85;;;18.00;99.90;;;;;;5112615;27;20050;-69
2022/08/07 06:35:27;;;;;;;5.60;4.05;;;18.00;99.90;;;;;;5113551;27;20057;-69
2022/08/07 06:37:52;;;;;;;4.70;4.30;;;18.20;99.90;;;;;;5087897;27;20354;-68
2022/08/07 06:40:18;;;;;;;6.05;4.20;;;18.20;99.90;;;;;;5083796;27;20049;-67
2022/08/07 06:42:47;;;;;;;4.25;3.67;;;18.30;99.90;;;;;;5113220;27;20242;-68
2022/08/07 06:45:16;;;;;;;4.85;3.97;;;18.30;99.90;;;;;;5117255;27;20035;-68
2022/08/07 06:47:42;;;;;;;3.70;3.28;;;18.40;99.90;;;;;;5097397;27;20408;-69
2022/08/07 06:50:08;;;;;;;4.00;3.60;;;18.50;99.90;;;;;;5102572;27;20103;-69
2022/08/07 06:52:40;;;;;;;4.38;3.70;;;18.50;99.90;;;;;;5094041;27;20120;-67
2022/08/07 06:55:31;;;;;;;4.22;2.97;;;18.70;99.90;;;;;;5104394;27;20422;-69
2022/08/07 06:58:00;;;;;;;4.43;2.88;;;18.80;99.90;;;;;;5120005;27;20053;-68
2022/08/07 07:00:29;;;;;;;4.40;2.42;;;18.90;99.90;;;;;;5120237;27;20058;-68
2022/08/07 07:02:56;;;;;;;4.25;3.00;;;18.90;99.90;;;;;;5094190;27;20042;-68
2022/08/07 07:05:22;;;;;;;3.60;2.33;;;18.80;99.90;;;;;;5070776;27;20315;-68
2022/08/07 07:07:47;;;;;;;3.95;2.35;;;19.10;99.90;;;;;;5101912;27;20365;-68
2022/08/07 07:10:14;;;;;;;4.45;2.50;;;19.30;99.90;;;;;;5087651;27;20073;-68
2022/08/07 07:12:51;;;;;;;4.13;2.22;;;19.30;99.90;;;;;;5104102;27;20047;-68
2022/08/07 07:15:32;;;;;;;2.25;1.50;;;19.60;99.90;;;;;;5140150;27;20310;-68
2022/08/07 07:18:27;;;;;;;1.38;0.90;;;19.70;99.90;;;;;;5097896;27;20039;-68
2022/08/07 07:21:01;;;;;;;2.05;1.50;;;19.80;99.90;;;;;;5134814;27;20047;-69
2022/08/07 07:23:32;;;;;;;4.35;2.05;;;20.00;99.90;;;;;;5122271;27;20043;-68
2022/08/07 07:26:04;;;;;;;3.20;1.70;;;20.10;99.90;;;;;;5120697;27;20714;-68
2022/08/07 07:28:53;;;;;;;2.55;1.40;;;20.10;99.90;;;;;;5038364;27;20055;-68
2022/08/07 07:31:30;;;;;;;2.40;1.35;;;20.10;99.90;;;;;;5066019;28;20196;-68
2022/08/07 07:34:00;;;;;;;3.53;0.93;;;20.20;99.90;;;;;;5077993;28;20552;-68
2022/08/07 07:36:27;;;;;;;1.58;1.40;;;20.20;99.90;;;;;;5076210;28;20556;-68
2022/08/07 07:38:52;;;;;;;4.65;1.52;;;20.40;99.90;;;;;;5095508;28;20409;-68
2022/08/07 07:41:21;;;;;;;3.25;1.80;;;20.40;99.90;;;;;;5061564;28;20192;-69
2022/08/07 07:43:51;;;;;;;3.17;1.42;;;20.40;99.90;;;;;;5078232;28;20621;-68
2022/08/07 07:46:17;;;;;;;2.95;1.85;;;20.60;99.90;;;;;;5058559;28;20501;-67
2022/08/07 07:48:46;;;;;;;1.70;1.60;;;20.70;99.90;;;;;;5068662;28;20040;-67
2022/08/07 07:51:14;;;;;;;2.30;1.95;;;20.60;99.90;;;;;;5075062;28;20325;-66
2022/08/07 07:53:44;;;;;;;3.17;1.65;;;20.50;99.90;;;;;;5055219;28;20318;-68
2022/08/07 07:56:13;;;;;;;3.80;1.95;;;20.40;99.90;;;;;;5073035;28;20043;-67
2022/08/07 07:58:40;;;;;;;3.28;1.90;;;20.50;99.90;;;;;;5074358;28;20074;-68
2022/08/07 08:01:10;;;;;;;2.72;1.55;;;20.60;99.90;;;;;;5082737;28;20082;-68
2022/08/07 08:03:37;;;;;;;3.20;2.03;;;20.80;99.90;;;;;;5082337;28;20069;-67
2022/08/07 08:06:05;;;;;;;2.60;2.00;;;21.00;99.90;;;;;;5065480;28;20593;-66
2022/08/07 08:08:34;;;;;;;2.05;1.50;;;21.10;99.90;;;;;;5065441;28;20031;-66
2022/08/07 08:11:00;;;;;;;2.70;1.70;;;21.20;99.90;;;;;;5060197;28;20375;-68
2022/08/07 08:13:27;;;;;;;2.67;1.80;;;21.20;99.90;;;;;;5083882;28;20035;-67
2022/08/07 08:15:56;;;;;;;2.20;1.70;;;21.40;99.90;;;;;;5083865;28;20079;-66
2022/08/07 08:18:26;;;;;;;2.78;1.60;;;21.70;99.90;;;;;;5066668;28;20719;-67
2022/08/07 08:20:52;;;;;;;2.83;1.77;;;21.90;99.90;;;;;;5091105;28;20489;-67
2022/08/07 08:28:52;;;;;;;2.60;1.65;;;21.90;99.90;;;;;;5072040;28;20044;-67
2022/08/07 08:31:27;;;;;;;2.88;1.80;;;21.70;99.90;;;;;;5072864;28;20046;-67
2022/08/07 08:33:55;;;;;;;1.48;1.17;;;22.10;99.90;;;;;;5072382;28;20319;-67
2022/08/07 08:36:25;;;;;;;1.75;1.20;;;22.00;99.90;;;;;;5071292;28;20043;-66
2022/08/07 08:38:52;;;;;;;2.50;1.33;;;22.10;99.90;;;;;;5072505;28;20040;-66
2022/08/07 08:41:42;;;;;;;2.03;1.30;;;22.10;99.90;;;;;;5055298;28;20497;-67
2022/08/07 08:44:15;;;;;;;1.77;1.20;;;22.10;99.90;;;;;;5088150;28;20035;-67
2022/08/07 08:46:53;;;;;;;3.53;1.63;;;22.50;99.90;;;;;;5072170;28;20035;-67
2022/08/07 08:49:30;;;;;;;2.45;1.40;;;22.70;99.90;;;;;;5057411;28;20047;-67
2022/08/07 08:52:04;;;;;;;3.00;1.40;;;22.00;96.90;;;;;;5055150;28;20470;-67
2022/08/07 08:54:50;;;;;;;4.15;1.63;;;21.70;99.90;;;;;;5072350;28;20610;-67
2022/08/07 08:57:45;;;;;;;1.67;1.48;;;21.90;99.90;;;;;;5070921;28;20053;-68
2022/08/07 09:00:12;;;;;;;1.90;1.50;;;22.20;99.60;;;;;;5054474;28;20151;-67
2022/08/07 09:02:48;;;;;;;3.65;1.50;;;22.30;99.00;;;;;;5072150;28;20039;-67
2022/08/07 09:05:51;;;;;;;2.55;1.30;;;22.50;97.10;;;;;;5071233;28;20719;-68
2022/08/07 09:08:23;;;;;;;7.72;1.75;;;21.80;97.40;;;;;;5071982;28;20032;-68
2022/08/07 09:11:08;;;;;;;3.13;1.70;;;21.20;99.20;;;;;;5054751;28;20276;-67
2022/08/07 09:14:13;;;;;;;2.13;1.30;;;20.80;99.90;;;;;;5071610;28;20048;-67
2022/08/07 09:16:56;;;;;;;3.28;1.52;;;20.70;99.90;;;;;;5057916;28;20368;-66
2022/08/07 09:19:32;;;;;;;2.15;1.38;;;21.20;99.00;;;;;;5077861;28;20118;-67
2022/08/07 09:22:22;;;;;;;2.08;1.20;;;21.30;98.80;;;;;;5096422;28;20276;-69
2022/08/07 09:25:00;;;;;;;3.70;1.65;;;21.40;97.30;;;;;;5068960;28;20120;-66
2022/08/07 09:27:51;;;;;;;2.53;1.10;;;21.70;94.60;;;;;;5082666;28;20408;-67
2022/08/07 09:30:18;;;;;;;2.42;1.13;;;22.40;92.60;;;;;;5053536;28;20047;-67
2022/08/07 09:33:02;;;;;;;2.60;1.10;;;22.90;90.60;;;;;;5068188;28;20130;-68
2022/08/07 09:35:46;;;;;;;3.53;1.20;;;23.40;89.30;;;;;;5059767;28;20120;-66
2022/08/07 09:38:26;;;;;;;1.40;1.20;;;23.50;87.10;;;;;;5076550;28;20468;-67
2022/08/07 09:41:18;;;;;;;1.58;0.90;;;23.90;83.30;;;;;;5060421;28;20044;-68
2022/08/07 09:44:02;;;;;;;4.18;1.30;;;23.60;77.70;;;;;;5076614;28;20047;-66
2022/08/07 09:46:29;;;;;;;2.42;1.17;;;23.60;80.30;;;;;;5060555;28;20036;-66
2022/08/07 09:49:05;;;;;;;1.50;0.95;;;23.70;79.40;;;;;;5075168;28;20442;-66
2022/08/07 09:52:05;;;;;;;2.00;1.10;;;23.60;74.40;;;;;;5074639;28;20043;-66
2022/08/07 09:54:47;;;;;;;2.03;1.00;;;23.70;72.60;;;;;;5057547;28;20117;-66
2022/08/07 09:57:47;;;;;;;2.17;0.80;;;24.00;74.30;;;;;;5048344;28;20227;-66
2022/08/07 10:00:15;;;;;;;2.78;1.40;;;24.00;69.50;;;;;;5060934;28;20226;-68
2022/08/07 10:02:56;;;;;;;4.30;1.00;;;23.90;72.40;;;;;;5078874;28;20414;-67
2022/08/07 10:05:51;;;;;;;1.10;1.00;;;24.00;67.40;;;;;;5074848;28;20207;-68
2022/08/07 10:09:15;;;;;;;2.83;1.02;;;23.90;69.80;;;;;;5058593;28;20043;-67
2022/08/07 10:11:58;;;;;;;1.95;0.90;;;23.40;67.30;;;;;;5024605;28;20105;-69
2022/08/07 10:14:37;;;;;;;1.33;0.73;;;23.10;67.90;;;;;;5081218;28;20144;-68
2022/08/07 10:17:22;;;;;;;1.55;1.00;;;23.00;71.50;;;;;;5061992;28;20110;-67
2022/08/07 10:20:10;;;;;;;2.03;1.10;;;23.10;72.30;;;;;;5065526;28;20412;-68
2022/08/07 10:23:02;;;;;;;2.20;1.27;;;22.70;73.20;;;;;;5074886;28;20501;-68
2022/08/07 10:25:53;;;;;;;2.42;1.02;;;22.40;69.10;;;;;;5073235;28;20039;-68
2022/08/07 10:28:44;;;;;;;2.75;0.80;;;22.30;71.10;;;;;;5072499;28;20035;-68
2022/08/07 10:31:10;;;;;;;2.40;1.23;;;23.20;76.00;;;;;;5054411;28;20491;-69
2022/08/07 10:33:55;;;;;;;1.92;0.90;;;24.00;69.80;;;;;;5053084;28;20146;-69
2022/08/07 10:36:38;;;;;;;1.73;0.95;;;24.50;63.50;;;;;;5054998;28;20118;-68
2022/08/07 10:39:17;;;;;;;2.83;0.90;;;24.80;63.40;;;;;;5071424;28;20046;-69
2022/08/07 10:42:00;;;;;;;4.03;1.00;;;25.20;61.20;;;;;;5074500;28;20035;-68
2022/08/07 10:44:36;;;;;;;2.83;0.82;;;25.30;60.20;;;;;;5056470;28;20347;-68
2022/08/07 10:47:19;;;;;;;1.42;0.65;;;25.00;57.10;;;;;;5056176;28;20039;-68
2022/08/07 10:50:11;;;;;;;9.05;1.00;;;24.60;58.80;;;;;;5071707;28;20079;-69
2022/08/07 10:52:59;;;;;;;0.97;0.50;;;24.60;60.30;;;;;;5056019;28;20112;-68
2022/08/07 10:55:45;;;;;;;1.45;0.50;;;24.80;54.50;;;;;;5059194;28;20048;-67
2022/08/07 10:58:30;;;;;;;1.75;0.60;;;24.70;48.40;;;;;;5081261;28;20346;-68
2022/08/07 11:01:20;;;;;;;2.25;0.60;;;24.60;48.70;;;;;;5058807;28;20040;-69
2022/08/07 11:03:59;;;;;;;2.85;0.70;;;24.70;52.70;;;;;;5061229;28;20105;-68
2022/08/07 11:06:44;;;;;;;4.22;0.60;;;25.20;50.00;;;;;;5061880;28;20047;-68
2022/08/07 11:09:18;;;;;;;0.75;0.40;;;25.40;46.70;;;;;;5074183;28;20039;-68
2022/08/07 11:12:05;;;;;;;1.55;0.65;;;25.50;47.10;;;;;;5060222;28;20134;-68
2022/08/07 11:14:48;;;;;;;1.75;0.95;;;26.20;46.70;;;;;;5073464;28;20044;-67
2022/08/07 11:17:37;;;;;;;2.88;0.63;;;25.90;47.60;;;;;;5076395;28;20031;-68
2022/08/07 11:20:20;;;;;;;0.82;0.43;;;25.90;48.60;;;;;;5051651;28;20063;-68
2022/08/07 11:23:24;;;;;;;1.05;0.30;;;25.80;43.90;;;;;;5080432;28;20038;-68
2022/08/07 11:26:33;;;;;;;1.27;0.40;;;25.90;40.60;;;;;;5053067;28;20035;-69
2022/08/07 11:29:09;;;;;;;0.93;0.40;;;26.10;39.50;;;;;;5010904;28;20040;-69
2022/08/07 11:32:03;;;;;;;1.67;0.43;;;26.50;38.30;;;;;;5058756;28;20042;-69
2022/08/07 11:34:53;;;;;;;1.40;0.50;;;26.70;40.70;;;;;;5076165;28;20415;-69
2022/08/07 11:37:36;;;;;;;2.17;0.65;;;27.10;42.40;;;;;;5059414;28;20051;-69
2022/08/07 11:40:27;;;;;;;1.52;0.80;;;27.20;44.80;;;;;;5073947;28;20046;-69
2022/08/07 11:43:11;;;;;;;1.77;0.55;;;26.90;43.90;;;;;;5056391;28;20626;-69
2022/08/07 11:46:11;;;;;;;1.05;0.50;;;26.90;43.20;;;;;;5076637;28;20071;-69
2022/08/07 11:48:59;;;;;;;1.70;0.60;;;26.70;43.80;;;;;;5065115;28;20074;-68
2022/08/07 11:51:47;;;;;;;1.92;0.60;;;26.80;44.70;;;;;;5083668;28;20040;-69
2022/08/07 11:54:40;;;;;;;1.80;0.60;;;26.70;43.60;;;;;;5072960;28;20067;-69
2022/08/07 11:57:20;;;;;;;0.85;0.40;;;27.00;43.30;;;;;;5088821;28;20051;-68
2022/08/07 12:00:06;;;;;;;1.20;0.45;;;27.50;43.20;;;;;;5061737;28;20142;-69
2022/08/07 12:03:09;;;;;;;1.73;0.60;;;27.40;42.60;;;;;;5090018;28;20120;-68
2022/08/07 12:05:44;;;;;;;1.75;0.50;;;27.30;41.50;;;;;;5072606;28;20077;-67
2022/08/07 12:08:31;;;;;;;1.45;0.47;;;26.30;41.90;;;;;;5055735;28;20036;-66
2022/08/07 12:11:13;;;;;;;1.25;0.50;;;26.10;42.80;;;;;;5070455;28;20649;-67
2022/08/07 12:13:57;;;;;;;3.95;0.80;;;26.80;44.30;;;;;;5044658;28;20746;-68
2022/08/07 12:16:39;;;;;;;3.63;1.27;;;26.60;53.00;;;;;;5070237;28;20144;-68
2022/08/07 12:19:26;;;;;;;2.90;1.20;;;27.30;59.30;;;;;;5068293;28;20039;-68
2022/08/07 12:21:56;;;;;;;7.35;1.30;;;26.70;61.20;;;;;;5087189;28;20042;-66
2022/08/07 12:27:47;;;;;;;3.33;1.13;;;27.80;61.90;;;;;;5075234;28;20086;-68
2022/08/07 12:30:15;;;;;;;2.70;1.20;;;27.60;63.10;;;;;;5077517;28;20039;-69
2022/08/07 12:32:57;;;;;;;4.78;1.70;;;27.40;62.90;;;;;;5078820;28;20075;-69
2022/08/07 12:35:25;;;;;;;1.30;0.98;;;27.10;64.60;;;;;;5078504;28;20431;-67
2022/08/07 12:37:53;;;;;;;2.05;1.08;;;27.30;69.10;;;;;;5080757;28;20046;-67
2022/08/07 12:40:23;;;;;;;4.10;1.17;;;27.90;66.40;;;;;;5062363;28;20054;-67
2022/08/07 12:42:56;;;;;;;3.45;0.93;;;27.20;66.60;;;;;;5068271;28;20907;-67
2022/08/07 12:45:26;;;;;;;1.70;1.20;;;26.30;67.60;;;;;;5079282;28;20142;-67
2022/08/07 12:48:02;;;;;;;5.10;1.60;;;25.80;69.50;;;;;;5059199;28;21415;-68
2022/08/07 12:50:58;;;;;;;4.43;1.73;;;25.30;75.80;;;;;;5076339;28;20135;-68
2022/08/07 12:53:38;;;;;;;1.33;1.10;;;25.00;80.30;;;;;;5074585;28;20044;-70
2022/08/07 12:56:08;;;;;;;2.05;1.20;;;24.80;82.40;;;;;;5072081;28;20047;-70
2022/08/07 12:58:48;;;;;;;1.95;1.40;;;24.70;82.10;;;;;;5078482;28;20055;-68
2022/08/07 13:02:06;;;;;;;1.67;1.38;;;24.50;81.30;;;;;;5086622;28;20126;-69
2022/08/07 13:04:53;;;;;;;5.05;1.55;;;24.40;87.90;;;;;;5063644;28;20123;-68
2022/08/07 13:07:39;;;;;;;4.10;1.48;;;24.60;90.40;;;;;;5067555;28;20135;-69
2022/08/07 13:10:23;;;;;;;1.58;1.20;;;25.20;86.90;;;;;;5057764;28;20039;-69
2022/08/07 13:13:03;;;;;;;3.65;1.52;;;25.90;87.80;;;;;;5059631;28;20047;-70
2022/08/07 13:15:41;;;;;;;3.10;1.50;;;26.10;84.60;;;;;;5057392;28;20054;-70
2022/08/07 13:18:22;;;;;;;2.92;1.35;;;26.00;77.80;;;;;;5058671;28;20104;-70
2022/08/07 13:21:06;;;;;;;1.75;1.10;;;26.70;75.90;;;;;;5059300;28;20856;-69
2022/08/07 13:23:49;;;;;;;3.63;1.27;;;27.00;73.10;;;;;;5076034;28;20652;-69